sensor_id;sensor_type;location;lat;lon;timestamp;temperature;humidity
48575;DHT22;34352;51.084;3.712;2023-03-05T00:00:14;5.80;72.60
48575;DHT22;34352;51.084;3.712;2023-03-05T00:02:57;5.80;73.80
48575;DHT22;34352;51.084;3.712;2023-03-05T00:05:38;6.00;72.30
48575;DHT22;34352;51.084;3.712;2023-03-05T00:08:05;6.50;71.40
48575;DHT22;34352;51.084;3.712;2023-03-05T00:10:30;5.80;70.80
48575;DHT22;34352;51.084;3.712;2023-03-05T00:12:56;5.80;70.60
48575;DHT22;34352;51.084;3.712;2023-03-05T00:15:24;5.70;71.20
48575;DHT22;34352;51.084;3.712;2023-03-05T00:17:49;5.70;72.10
48575;DHT22;34352;51.084;3.712;2023-03-05T00:20:15;5.70;72.10
48575;DHT22;34352;51.084;3.712;2023-03-05T00:22:42;5.60;70.30
48575;DHT22;34352;51.084;3.712;2023-03-05T00:25:08;5.90;71.90
48575;DHT22;34352;51.084;3.712;2023-03-05T00:27:36;5.70;71.00
48575;DHT22;34352;51.084;3.712;2023-03-05T00:30:04;5.90;70.00
48575;DHT22;34352;51.084;3.712;2023-03-05T00:32:29;5.70;70.50
48575;DHT22;34352;51.084;3.712;2023-03-05T00:34:56;5.80;70.60
48575;DHT22;34352;51.084;3.712;2023-03-05T00:37:22;5.70;70.00
48575;DHT22;34352;51.084;3.712;2023-03-05T00:39:48;5.80;67.40
48575;DHT22;34352;51.084;3.712;2023-03-05T00:42:14;5.90;64.90
48575;DHT22;34352;51.084;3.712;2023-03-05T00:44:40;5.80;64.00
48575;DHT22;34352;51.084;3.712;2023-03-05T00:47:06;5.60;66.60
48575;DHT22;34352;51.084;3.712;2023-03-05T00:49:32;5.70;69.80
48575;DHT22;34352;51.084;3.712;2023-03-05T00:51:58;5.70;71.40
48575;DHT22;34352;51.084;3.712;2023-03-05T00:54:23;5.60;69.60
48575;DHT22;34352;51.084;3.712;2023-03-05T00:56:49;5.70;68.60
48575;DHT22;34352;51.084;3.712;2023-03-05T00:59:16;5.60;69.20
48575;DHT22;34352;51.084;3.712;2023-03-05T01:01:43;5.70;68.80
48575;DHT22;34352;51.084;3.712;2023-03-05T01:04:09;5.70;68.60
48575;DHT22;34352;51.084;3.712;2023-03-05T01:06:38;5.80;68.60
48575;DHT22;34352;51.084;3.712;2023-03-05T01:09:08;5.80;66.70
48575;DHT22;34352;51.084;3.712;2023-03-05T01:11:33;5.80;64.50
48575;DHT22;34352;51.084;3.712;2023-03-05T01:14:00;5.80;63.30
48575;DHT22;34352;51.084;3.712;2023-03-05T01:16:26;5.70;62.30
48575;DHT22;34352;51.084;3.712;2023-03-05T01:18:51;5.70;62.40
48575;DHT22;34352;51.084;3.712;2023-03-05T01:21:17;5.50;61.80
48575;DHT22;34352;51.084;3.712;2023-03-05T01:23:44;5.50;61.90
48575;DHT22;34352;51.084;3.712;2023-03-05T01:26:10;5.40;61.60
48575;DHT22;34352;51.084;3.712;2023-03-05T01:28:35;5.30;62.40
48575;DHT22;34352;51.084;3.712;2023-03-05T01:31:06;5.30;62.40
48575;DHT22;34352;51.084;3.712;2023-03-05T01:33:32;5.30;62.30
48575;DHT22;34352;51.084;3.712;2023-03-05T01:35:58;5.20;62.90
48575;DHT22;34352;51.084;3.712;2023-03-05T01:38:23;5.30;63.00
48575;DHT22;34352;51.084;3.712;2023-03-05T01:40:49;5.30;63.10
48575;DHT22;34352;51.084;3.712;2023-03-05T01:43:23;5.20;62.10
48575;DHT22;34352;51.084;3.712;2023-03-05T01:51:29;5.10;63.70
48575;DHT22;34352;51.084;3.712;2023-03-05T01:53:56;5.00;65.30
48575;DHT22;34352;51.084;3.712;2023-03-05T01:56:24;4.90;67.30
48575;DHT22;34352;51.084;3.712;2023-03-05T01:58:51;4.90;69.10
48575;DHT22;34352;51.084;3.712;2023-03-05T02:01:19;4.90;69.50
48575;DHT22;34352;51.084;3.712;2023-03-05T02:03:46;5.00;69.60
48575;DHT22;34352;51.084;3.712;2023-03-05T02:06:12;5.00;68.80
48575;DHT22;34352;51.084;3.712;2023-03-05T02:08:38;5.00;67.80
48575;DHT22;34352;51.084;3.712;2023-03-05T02:11:05;5.20;65.40
48575;DHT22;34352;51.084;3.712;2023-03-05T02:13:33;5.70;65.30
48575;DHT22;34352;51.084;3.712;2023-03-05T02:16:03;5.10;65.60
48575;DHT22;34352;51.084;3.712;2023-03-05T02:18:29;5.10;64.70
48575;DHT22;34352;51.084;3.712;2023-03-05T02:23:25;5.10;64.50
48575;DHT22;34352;51.084;3.712;2023-03-05T02:25:52;5.10;64.90
48575;DHT22;34352;51.084;3.712;2023-03-05T02:30:55;5.00;64.10
48575;DHT22;34352;51.084;3.712;2023-03-05T02:33:21;5.20;64.00
48575;DHT22;34352;51.084;3.712;2023-03-05T02:35:46;5.00;62.60
48575;DHT22;34352;51.084;3.712;2023-03-05T02:38:20;5.00;64.60
48575;DHT22;34352;51.084;3.712;2023-03-05T02:40:47;5.10;65.00
48575;DHT22;34352;51.084;3.712;2023-03-05T02:43:12;5.00;68.10
48575;DHT22;34352;51.084;3.712;2023-03-05T02:45:41;5.50;67.70
48575;DHT22;34352;51.084;3.712;2023-03-05T02:48:08;5.10;67.20
48575;DHT22;34352;51.084;3.712;2023-03-05T02:50:34;5.80;70.70
48575;DHT22;34352;51.084;3.712;2023-03-05T02:53:03;5.50;72.30
48575;DHT22;34352;51.084;3.712;2023-03-05T02:55:30;5.30;71.60
48575;DHT22;34352;51.084;3.712;2023-03-05T02:57:55;5.20;72.30
48575;DHT22;34352;51.084;3.712;2023-03-05T03:00:22;5.10;73.10
48575;DHT22;34352;51.084;3.712;2023-03-05T03:02:49;5.20;73.80
48575;DHT22;34352;51.084;3.712;2023-03-05T03:05:16;5.50;74.00
48575;DHT22;34352;51.084;3.712;2023-03-05T03:07:41;5.20;74.20
48575;DHT22;34352;51.084;3.712;2023-03-05T03:10:08;5.10;75.00
48575;DHT22;34352;51.084;3.712;2023-03-05T03:12:41;5.10;76.40
48575;DHT22;34352;51.084;3.712;2023-03-05T03:15:09;5.20;75.80
48575;DHT22;34352;51.084;3.712;2023-03-05T03:17:35;5.20;76.40
48575;DHT22;34352;51.084;3.712;2023-03-05T03:20:03;5.30;76.40
48575;DHT22;34352;51.084;3.712;2023-03-05T03:22:29;5.30;76.30
48575;DHT22;34352;51.084;3.712;2023-03-05T03:24:55;5.30;76.30
48575;DHT22;34352;51.084;3.712;2023-03-05T03:27:21;5.30;74.30
48575;DHT22;34352;51.084;3.712;2023-03-05T03:29:47;5.30;74.40
48575;DHT22;34352;51.084;3.712;2023-03-05T03:32:16;5.30;73.50
48575;DHT22;34352;51.084;3.712;2023-03-05T03:34:43;5.20;76.20
48575;DHT22;34352;51.084;3.712;2023-03-05T03:37:09;5.20;77.60
48575;DHT22;34352;51.084;3.712;2023-03-05T03:39:36;5.20;78.20
48575;DHT22;34352;51.084;3.712;2023-03-05T03:42:02;5.20;79.00
48575;DHT22;34352;51.084;3.712;2023-03-05T03:44:28;5.20;78.60
48575;DHT22;34352;51.084;3.712;2023-03-05T03:46:55;5.10;79.20
48575;DHT22;34352;51.084;3.712;2023-03-05T03:49:24;5.60;80.50
48575;DHT22;34352;51.084;3.712;2023-03-05T03:51:52;5.20;80.50
48575;DHT22;34352;51.084;3.712;2023-03-05T03:54:22;5.90;80.80
48575;DHT22;34352;51.084;3.712;2023-03-05T03:56:48;5.50;79.10
48575;DHT22;34352;51.084;3.712;2023-03-05T03:59:14;5.20;79.80
48575;DHT22;34352;51.084;3.712;2023-03-05T04:01:40;5.30;80.30
48575;DHT22;34352;51.084;3.712;2023-03-05T04:04:07;5.20;80.70
48575;DHT22;34352;51.084;3.712;2023-03-05T04:06:34;5.30;81.00
48575;DHT22;34352;51.084;3.712;2023-03-05T04:09:00;5.30;81.00
48575;DHT22;34352;51.084;3.712;2023-03-05T04:11:32;5.30;80.50
48575;DHT22;34352;51.084;3.712;2023-03-05T04:14:01;5.30;79.50
48575;DHT22;34352;51.084;3.712;2023-03-05T04:16:38;5.30;80.20
48575;DHT22;34352;51.084;3.712;2023-03-05T04:19:20;5.30;81.00
48575;DHT22;34352;51.084;3.712;2023-03-05T04:21:46;5.30;81.20
48575;DHT22;34352;51.084;3.712;2023-03-05T04:24:13;5.40;81.10
48575;DHT22;34352;51.084;3.712;2023-03-05T04:26:38;5.40;81.20
48575;DHT22;34352;51.084;3.712;2023-03-05T04:29:04;5.60;81.50
48575;DHT22;34352;51.084;3.712;2023-03-05T04:31:30;5.50;81.00
48575;DHT22;34352;51.084;3.712;2023-03-05T04:33:55;5.60;80.50
48575;DHT22;34352;51.084;3.712;2023-03-05T04:36:21;6.10;79.10
48575;DHT22;34352;51.084;3.712;2023-03-05T04:38:47;5.50;77.80
48575;DHT22;34352;51.084;3.712;2023-03-05T04:41:12;5.50;79.00
48575;DHT22;34352;51.084;3.712;2023-03-05T04:43:38;5.50;78.50
48575;DHT22;34352;51.084;3.712;2023-03-05T04:46:04;5.40;78.80
48575;DHT22;34352;51.084;3.712;2023-03-05T04:48:29;5.50;79.80
48575;DHT22;34352;51.084;3.712;2023-03-05T04:50:55;7.20;80.60
48575;DHT22;34352;51.084;3.712;2023-03-05T04:53:22;5.40;80.00
48575;DHT22;34352;51.084;3.712;2023-03-05T04:55:54;5.40;78.90
48575;DHT22;34352;51.084;3.712;2023-03-05T04:58:26;5.30;78.40
48575;DHT22;34352;51.084;3.712;2023-03-05T05:01:02;5.30;79.30
48575;DHT22;34352;51.084;3.712;2023-03-05T05:03:30;5.20;79.30
48575;DHT22;34352;51.084;3.712;2023-03-05T05:05:57;5.60;79.80
48575;DHT22;34352;51.084;3.712;2023-03-05T05:08:23;5.20;80.70
48575;DHT22;34352;51.084;3.712;2023-03-05T05:11:03;5.30;80.70
48575;DHT22;34352;51.084;3.712;2023-03-05T05:13:30;5.10;81.60
48575;DHT22;34352;51.084;3.712;2023-03-05T05:15:56;5.10;82.30
48575;DHT22;34352;51.084;3.712;2023-03-05T05:18:28;5.20;82.70
48575;DHT22;34352;51.084;3.712;2023-03-05T05:21:31;5.10;82.10
48575;DHT22;34352;51.084;3.712;2023-03-05T05:23:56;5.20;82.70
48575;DHT22;34352;51.084;3.712;2023-03-05T05:26:22;5.10;82.50
48575;DHT22;34352;51.084;3.712;2023-03-05T05:28:49;5.20;82.50
48575;DHT22;34352;51.084;3.712;2023-03-05T05:31:19;5.40;82.40
48575;DHT22;34352;51.084;3.712;2023-03-05T05:33:47;5.20;81.70
48575;DHT22;34352;51.084;3.712;2023-03-05T05:36:15;5.30;82.30
48575;DHT22;34352;51.084;3.712;2023-03-05T05:38:43;5.30;82.40
48575;DHT22;34352;51.084;3.712;2023-03-05T05:41:13;5.20;82.80
48575;DHT22;34352;51.084;3.712;2023-03-05T05:43:39;5.30;83.20
48575;DHT22;34352;51.084;3.712;2023-03-05T05:46:09;5.30;83.80
48575;DHT22;34352;51.084;3.712;2023-03-05T05:48:37;5.30;83.00
48575;DHT22;34352;51.084;3.712;2023-03-05T05:51:08;5.30;82.70
48575;DHT22;34352;51.084;3.712;2023-03-05T05:53:35;5.40;83.10
48575;DHT22;34352;51.084;3.712;2023-03-05T05:56:03;5.40;83.30
48575;DHT22;34352;51.084;3.712;2023-03-05T05:58:29;5.40;82.60
48575;DHT22;34352;51.084;3.712;2023-03-05T06:00:56;5.50;82.30
48575;DHT22;34352;51.084;3.712;2023-03-05T06:03:22;5.50;81.30
48575;DHT22;34352;51.084;3.712;2023-03-05T06:05:49;5.50;80.70
48575;DHT22;34352;51.084;3.712;2023-03-05T06:08:17;5.40;81.70
48575;DHT22;34352;51.084;3.712;2023-03-05T06:10:43;5.10;81.70
48575;DHT22;34352;51.084;3.712;2023-03-05T06:13:10;5.00;83.10
48575;DHT22;34352;51.084;3.712;2023-03-05T06:15:35;5.00;84.10
48575;DHT22;34352;51.084;3.712;2023-03-05T06:18:01;5.80;85.20
48575;DHT22;34352;51.084;3.712;2023-03-05T06:20:28;5.30;83.00
48575;DHT22;34352;51.084;3.712;2023-03-05T06:22:54;5.30;81.20
48575;DHT22;34352;51.084;3.712;2023-03-05T06:25:19;5.10;81.20
48575;DHT22;34352;51.084;3.712;2023-03-05T06:27:45;5.20;81.90
48575;DHT22;34352;51.084;3.712;2023-03-05T06:30:11;5.60;82.00
48575;DHT22;34352;51.084;3.712;2023-03-05T06:32:38;5.30;80.20
48575;DHT22;34352;51.084;3.712;2023-03-05T06:35:03;5.20;78.90
48575;DHT22;34352;51.084;3.712;2023-03-05T06:37:29;5.10;79.10
48575;DHT22;34352;51.084;3.712;2023-03-05T06:39:55;5.10;78.60
48575;DHT22;34352;51.084;3.712;2023-03-05T06:42:21;5.10;78.90
48575;DHT22;34352;51.084;3.712;2023-03-05T06:44:47;5.00;79.60
48575;DHT22;34352;51.084;3.712;2023-03-05T06:47:13;5.10;79.50
48575;DHT22;34352;51.084;3.712;2023-03-05T06:49:40;5.00;78.90
48575;DHT22;34352;51.084;3.712;2023-03-05T06:52:06;5.10;79.40
48575;DHT22;34352;51.084;3.712;2023-03-05T06:54:35;5.00;79.90
48575;DHT22;34352;51.084;3.712;2023-03-05T06:57:01;5.00;79.30
48575;DHT22;34352;51.084;3.712;2023-03-05T06:59:28;5.10;78.80
48575;DHT22;34352;51.084;3.712;2023-03-05T07:02:08;5.00;78.40
48575;DHT22;34352;51.084;3.712;2023-03-05T07:04:53;5.10;77.50
48575;DHT22;34352;51.084;3.712;2023-03-05T07:07:19;5.20;75.70
48575;DHT22;34352;51.084;3.712;2023-03-05T07:12:53;5.20;74.20
48575;DHT22;34352;51.084;3.712;2023-03-05T07:15:19;5.00;74.70
48575;DHT22;34352;51.084;3.712;2023-03-05T07:17:48;5.20;73.80
48575;DHT22;34352;51.084;3.712;2023-03-05T07:20:17;5.20;75.20
48575;DHT22;34352;51.084;3.712;2023-03-05T07:22:43;5.40;75.60
48575;DHT22;34352;51.084;3.712;2023-03-05T07:25:09;5.50;74.50
48575;DHT22;34352;51.084;3.712;2023-03-05T07:27:37;5.60;71.70
48575;DHT22;34352;51.084;3.712;2023-03-05T07:30:05;5.50;68.50
48575;DHT22;34352;51.084;3.712;2023-03-05T07:32:34;5.50;72.20
48575;DHT22;34352;51.084;3.712;2023-03-05T07:35:01;5.50;70.20
48575;DHT22;34352;51.084;3.712;2023-03-05T07:37:29;6.20;70.10
48575;DHT22;34352;51.084;3.712;2023-03-05T07:39:57;5.60;68.80
48575;DHT22;34352;51.084;3.712;2023-03-05T07:42:26;6.00;66.80
48575;DHT22;34352;51.084;3.712;2023-03-05T07:44:55;5.60;70.50
48575;DHT22;34352;51.084;3.712;2023-03-05T07:47:21;5.50;71.60
48575;DHT22;34352;51.084;3.712;2023-03-05T07:49:54;4.40;70.50
48575;DHT22;34352;51.084;3.712;2023-03-05T07:52:25;5.70;70.30
48575;DHT22;34352;51.084;3.712;2023-03-05T07:54:51;5.90;70.50
48575;DHT22;34352;51.084;3.712;2023-03-05T07:57:24;6.60;70.30
48575;DHT22;34352;51.084;3.712;2023-03-05T07:59:54;6.10;71.50
48575;DHT22;34352;51.084;3.712;2023-03-05T08:02:25;6.20;71.70
48575;DHT22;34352;51.084;3.712;2023-03-05T08:04:54;6.40;71.90
48575;DHT22;34352;51.084;3.712;2023-03-05T08:07:20;6.70;70.00
48575;DHT22;34352;51.084;3.712;2023-03-05T08:09:55;6.70;63.30
48575;DHT22;34352;51.084;3.712;2023-03-05T08:12:23;6.70;60.00
48575;DHT22;34352;51.084;3.712;2023-03-05T08:14:49;6.70;60.50
48575;DHT22;34352;51.084;3.712;2023-03-05T08:17:16;6.60;59.10
48575;DHT22;34352;51.084;3.712;2023-03-05T08:19:42;6.50;61.90
48575;DHT22;34352;51.084;3.712;2023-03-05T08:22:11;6.20;63.90
48575;DHT22;34352;51.084;3.712;2023-03-05T08:24:37;6.10;66.20
48575;DHT22;34352;51.084;3.712;2023-03-05T08:27:09;6.00;67.90
48575;DHT22;34352;51.084;3.712;2023-03-05T08:29:40;6.10;69.20
48575;DHT22;34352;51.084;3.712;2023-03-05T08:32:13;6.20;71.40
48575;DHT22;34352;51.084;3.712;2023-03-05T08:34:39;6.30;71.50
48575;DHT22;34352;51.084;3.712;2023-03-05T08:37:05;6.50;71.60
48575;DHT22;34352;51.084;3.712;2023-03-05T08:39:34;6.50;67.10
48575;DHT22;34352;51.084;3.712;2023-03-05T08:42:05;6.60;67.70
48575;DHT22;34352;51.084;3.712;2023-03-05T08:44:38;6.50;67.20
48575;DHT22;34352;51.084;3.712;2023-03-05T08:47:05;6.90;64.50
48575;DHT22;34352;51.084;3.712;2023-03-05T08:49:39;7.10;59.50
48575;DHT22;34352;51.084;3.712;2023-03-05T08:52:09;7.10;56.20
48575;DHT22;34352;51.084;3.712;2023-03-05T08:54:43;7.10;56.10
48575;DHT22;34352;51.084;3.712;2023-03-05T08:57:14;7.20;56.20
48575;DHT22;34352;51.084;3.712;2023-03-05T08:59:49;7.40;54.30
48575;DHT22;34352;51.084;3.712;2023-03-05T09:02:16;7.50;51.20
48575;DHT22;34352;51.084;3.712;2023-03-05T09:04:49;7.60;46.70
48575;DHT22;34352;51.084;3.712;2023-03-05T09:07:31;7.20;46.90
48575;DHT22;34352;51.084;3.712;2023-03-05T09:09:57;7.70;48.50
48575;DHT22;34352;51.084;3.712;2023-03-05T09:12:46;7.90;42.40
48575;DHT22;34352;51.084;3.712;2023-03-05T09:15:16;8.00;38.20
48575;DHT22;34352;51.084;3.712;2023-03-05T09:17:46;7.30;27.10
48575;DHT22;34352;51.084;3.712;2023-03-05T09:20:14;8.00;26.20
48575;DHT22;34352;51.084;3.712;2023-03-05T09:22:41;7.70;29.60
48575;DHT22;34352;51.084;3.712;2023-03-05T09:25:20;7.90;30.70
48575;DHT22;34352;51.084;3.712;2023-03-05T09:27:53;7.60;28.40
48575;DHT22;34352;51.084;3.712;2023-03-05T09:30:53;7.70;25.10
48575;DHT22;34352;51.084;3.712;2023-03-05T09:33:36;7.80;28.30
48575;DHT22;34352;51.084;3.712;2023-03-05T09:36:27;6.70;27.20
48575;DHT22;34352;51.084;3.712;2023-03-05T09:55:36;7.70;36.70
48575;DHT22;34352;51.084;3.712;2023-03-05T09:58:17;7.30;32.80
48575;DHT22;34352;51.084;3.712;2023-03-05T10:01:25;7.80;24.90
48575;DHT22;34352;51.084;3.712;2023-03-05T10:14:28;8.20;11.20
48575;DHT22;34352;51.084;3.712;2023-03-05T10:25:16;7.90;1.00
48575;DHT22;34352;51.084;3.712;2023-03-05T10:27:48;8.00;1.00
48575;DHT22;34352;51.084;3.712;2023-03-05T10:42:20;8.40;1.00
48575;DHT22;34352;51.084;3.712;2023-03-05T10:44:52;8.60;1.00
48575;DHT22;34352;51.084;3.712;2023-03-05T10:47:36;8.10;1.00
48575;DHT22;34352;51.084;3.712;2023-03-05T10:52:41;7.60;1.00
48575;DHT22;34352;51.084;3.712;2023-03-05T10:55:17;7.40;1.00
48575;DHT22;34352;51.084;3.712;2023-03-05T10:57:49;7.30;1.00
48575;DHT22;34352;51.084;3.712;2023-03-05T11:00:22;7.10;1.00
48575;DHT22;34352;51.084;3.712;2023-03-05T11:02:58;7.10;1.00
48575;DHT22;34352;51.084;3.712;2023-03-05T11:05:44;7.10;1.00
48575;DHT22;34352;51.084;3.712;2023-03-05T11:08:31;7.10;1.00
48575;DHT22;34352;51.084;3.712;2023-03-05T11:11:08;7.00;1.00
48575;DHT22;34352;51.084;3.712;2023-03-05T11:13:58;7.00;3.00
48575;DHT22;34352;51.084;3.712;2023-03-05T11:16:33;6.90;4.10
48575;DHT22;34352;51.084;3.712;2023-03-05T11:19:20;6.90;13.00
48575;DHT22;34352;51.084;3.712;2023-03-05T11:22:14;6.90;10.60
48575;DHT22;34352;51.084;3.712;2023-03-05T11:24:40;6.90;9.20
48575;DHT22;34352;51.084;3.712;2023-03-05T11:27:36;6.90;12.70
48575;DHT22;34352;51.084;3.712;2023-03-05T11:30:12;6.90;20.20
48575;DHT22;34352;51.084;3.712;2023-03-05T11:32:45;6.90;22.80
48575;DHT22;34352;51.084;3.712;2023-03-05T11:35:33;7.10;29.60
48575;DHT22;34352;51.084;3.712;2023-03-05T11:38:28;7.40;35.00
48575;DHT22;34352;51.084;3.712;2023-03-05T11:41:11;7.50;29.50
48575;DHT22;34352;51.084;3.712;2023-03-05T11:43:38;7.60;27.10
48575;DHT22;34352;51.084;3.712;2023-03-05T11:46:09;7.70;21.80
48575;DHT22;34352;51.084;3.712;2023-03-05T11:48:37;6.70;1.00
48575;DHT22;34352;51.084;3.712;2023-03-05T11:51:17;6.10;1.00
48575;DHT22;34352;51.084;3.712;2023-03-05T11:53:49;6.00;15.80
48575;DHT22;34352;51.084;3.712;2023-03-05T11:56:35;5.50;26.20
48575;DHT22;34352;51.084;3.712;2023-03-05T11:59:30;5.30;34.00
48575;DHT22;34352;51.084;3.712;2023-03-05T12:01:59;5.40;36.30
48575;DHT22;34352;51.084;3.712;2023-03-05T12:04:25;5.50;38.40
48575;DHT22;34352;51.084;3.712;2023-03-05T12:06:57;5.60;41.70
48575;DHT22;34352;51.084;3.712;2023-03-05T12:09:51;5.80;45.30
48575;DHT22;34352;51.084;3.712;2023-03-05T12:12:34;6.00;44.00
48575;DHT22;34352;51.084;3.712;2023-03-05T12:22:59;6.90;1.80
48575;DHT22;34352;51.084;3.712;2023-03-05T12:28:54;7.00;5.10
48575;DHT22;34352;51.084;3.712;2023-03-05T12:31:34;7.00;10.00
48575;DHT22;34352;51.084;3.712;2023-03-05T12:45:22;7.30;1.00
48575;DHT22;34352;51.084;3.712;2023-03-05T12:53:14;7.90;1.00
48575;DHT22;34352;51.084;3.712;2023-03-05T12:55:53;7.20;1.00
48575;DHT22;34352;51.084;3.712;2023-03-05T13:01:44;7.60;1.00
48575;DHT22;34352;51.084;3.712;2023-03-05T13:04:22;7.90;1.00
48575;DHT22;34352;51.084;3.712;2023-03-05T13:07:02;7.60;1.00
48575;DHT22;34352;51.084;3.712;2023-03-05T13:09:31;7.70;1.00
48575;DHT22;34352;51.084;3.712;2023-03-05T13:12:02;7.70;1.00
48575;DHT22;34352;51.084;3.712;2023-03-05T13:14:42;8.10;1.00
48575;DHT22;34352;51.084;3.712;2023-03-05T13:20:02;7.90;1.00
48575;DHT22;34352;51.084;3.712;2023-03-05T13:22:41;8.00;1.00
48575;DHT22;34352;51.084;3.712;2023-03-05T13:35:19;8.10;1.00
48575;DHT22;34352;51.084;3.712;2023-03-05T13:37:46;8.00;1.00
48575;DHT22;34352;51.084;3.712;2023-03-05T13:40:20;7.80;1.00
48575;DHT22;34352;51.084;3.712;2023-03-05T13:42:46;7.60;1.00
48575;DHT22;34352;51.084;3.712;2023-03-05T13:45:51;7.50;1.00
48575;DHT22;34352;51.084;3.712;2023-03-05T13:48:18;7.50;1.00
48575;DHT22;34352;51.084;3.712;2023-03-05T13:50:44;7.90;1.00
48575;DHT22;34352;51.084;3.712;2023-03-05T13:53:27;7.50;1.00
48575;DHT22;34352;51.084;3.712;2023-03-05T13:56:00;7.50;1.00
48575;DHT22;34352;51.084;3.712;2023-03-05T13:58:49;7.50;1.00
48575;DHT22;34352;51.084;3.712;2023-03-05T14:03:50;7.60;1.00
48575;DHT22;34352;51.084;3.712;2023-03-05T14:06:19;7.60;1.00
48575;DHT22;34352;51.084;3.712;2023-03-05T14:09:02;7.70;1.00
48575;DHT22;34352;51.084;3.712;2023-03-05T14:11:30;7.70;1.00
48575;DHT22;34352;51.084;3.712;2023-03-05T14:14:07;7.60;1.00
48575;DHT22;34352;51.084;3.712;2023-03-05T14:16:34;7.50;1.00
48575;DHT22;34352;51.084;3.712;2023-03-05T14:19:03;7.50;1.00
48575;DHT22;34352;51.084;3.712;2023-03-05T14:21:49;7.30;1.00
48575;DHT22;34352;51.084;3.712;2023-03-05T14:24:25;7.30;1.00
48575;DHT22;34352;51.084;3.712;2023-03-05T14:27:03;7.40;1.00
48575;DHT22;34352;51.084;3.712;2023-03-05T14:29:33;7.30;1.00
48575;DHT22;34352;51.084;3.712;2023-03-05T14:35:15;7.30;1.00
48575;DHT22;34352;51.084;3.712;2023-03-05T14:37:46;7.20;1.00
48575;DHT22;34352;51.084;3.712;2023-03-05T14:40:30;7.30;1.00
48575;DHT22;34352;51.084;3.712;2023-03-05T14:43:03;6.40;1.00
48575;DHT22;34352;51.084;3.712;2023-03-05T14:45:33;7.30;1.00
48575;DHT22;34352;51.084;3.712;2023-03-05T14:48:04;7.30;1.00
48575;DHT22;34352;51.084;3.712;2023-03-05T14:50:56;7.20;1.00
48575;DHT22;34352;51.084;3.712;2023-03-05T14:53:31;7.00;1.00
48575;DHT22;34352;51.084;3.712;2023-03-05T14:56:25;7.20;1.00
48575;DHT22;34352;51.084;3.712;2023-03-05T14:59:11;7.60;1.00
48575;DHT22;34352;51.084;3.712;2023-03-05T15:01:44;7.10;1.00
48575;DHT22;34352;51.084;3.712;2023-03-05T15:04:14;6.90;1.00
48575;DHT22;34352;51.084;3.712;2023-03-05T15:06:50;7.20;1.00
48575;DHT22;34352;51.084;3.712;2023-03-05T15:09:24;7.10;1.00
48575;DHT22;34352;51.084;3.712;2023-03-05T15:12:00;7.20;1.00
48575;DHT22;34352;51.084;3.712;2023-03-05T15:14:31;7.20;1.00
48575;DHT22;34352;51.084;3.712;2023-03-05T15:17:01;7.90;1.00
48575;DHT22;34352;51.084;3.712;2023-03-05T15:19:29;7.20;1.00
48575;DHT22;34352;51.084;3.712;2023-03-05T15:22:11;7.20;1.00
48575;DHT22;34352;51.084;3.712;2023-03-05T15:24:56;7.10;1.00
48575;DHT22;34352;51.084;3.712;2023-03-05T15:27:50;8.10;1.00
48575;DHT22;34352;51.084;3.712;2023-03-05T15:30:33;6.00;1.00
48575;DHT22;34352;51.084;3.712;2023-03-05T15:33:06;6.60;1.00
48575;DHT22;34352;51.084;3.712;2023-03-05T15:35:36;7.10;1.00
48575;DHT22;34352;51.084;3.712;2023-03-05T15:38:05;7.10;1.00
48575;DHT22;34352;51.084;3.712;2023-03-05T15:40:32;7.10;1.00
48575;DHT22;34352;51.084;3.712;2023-03-05T15:43:02;7.00;1.00
48575;DHT22;34352;51.084;3.712;2023-03-05T15:45:34;7.00;1.00
48575;DHT22;34352;51.084;3.712;2023-03-05T15:48:01;6.50;1.00
48575;DHT22;34352;51.084;3.712;2023-03-05T15:50:34;6.90;1.00
48575;DHT22;34352;51.084;3.712;2023-03-05T15:53:00;5.90;1.00
48575;DHT22;34352;51.084;3.712;2023-03-05T15:55:26;7.00;1.00
48575;DHT22;34352;51.084;3.712;2023-03-05T15:57:58;6.90;1.00
48575;DHT22;34352;51.084;3.712;2023-03-05T16:00:28;6.20;1.00
48575;DHT22;34352;51.084;3.712;2023-03-05T16:02:58;7.00;1.00
48575;DHT22;34352;51.084;3.712;2023-03-05T16:05:26;6.90;1.00
48575;DHT22;34352;51.084;3.712;2023-03-05T16:07:52;6.90;1.00
48575;DHT22;34352;51.084;3.712;2023-03-05T16:10:22;6.80;1.00
48575;DHT22;34352;51.084;3.712;2023-03-05T16:13:08;6.80;1.00
48575;DHT22;34352;51.084;3.712;2023-03-05T16:15:37;6.90;1.00
48575;DHT22;34352;51.084;3.712;2023-03-05T16:18:08;6.80;1.00
48575;DHT22;34352;51.084;3.712;2023-03-05T16:20:35;7.00;1.00
48575;DHT22;34352;51.084;3.712;2023-03-05T16:23:04;6.70;1.00
48575;DHT22;34352;51.084;3.712;2023-03-05T16:25:31;6.80;1.00
48575;DHT22;34352;51.084;3.712;2023-03-05T16:27:58;6.70;1.00
48575;DHT22;34352;51.084;3.712;2023-03-05T16:30:30;6.70;1.00
48575;DHT22;34352;51.084;3.712;2023-03-05T16:32:58;6.60;1.00
48575;DHT22;34352;51.084;3.712;2023-03-05T16:35:24;6.70;1.00
48575;DHT22;34352;51.084;3.712;2023-03-05T16:37:54;6.50;1.00
48575;DHT22;34352;51.084;3.712;2023-03-05T16:40:26;6.50;1.00
48575;DHT22;34352;51.084;3.712;2023-03-05T16:42:58;6.50;1.00
48575;DHT22;34352;51.084;3.712;2023-03-05T16:45:27;6.50;1.00
48575;DHT22;34352;51.084;3.712;2023-03-05T16:47:55;6.50;1.00
48575;DHT22;34352;51.084;3.712;2023-03-05T16:50:23;6.60;1.00
48575;DHT22;34352;51.084;3.712;2023-03-05T16:52:50;6.50;1.00
48575;DHT22;34352;51.084;3.712;2023-03-05T16:55:19;6.50;1.00
48575;DHT22;34352;51.084;3.712;2023-03-05T16:58:00;6.50;1.00
48575;DHT22;34352;51.084;3.712;2023-03-05T17:00:33;6.50;1.00
48575;DHT22;34352;51.084;3.712;2023-03-05T17:03:00;6.60;1.00
48575;DHT22;34352;51.084;3.712;2023-03-05T17:05:28;7.30;1.00
48575;DHT22;34352;51.084;3.712;2023-03-05T17:07:59;6.60;1.00
48575;DHT22;34352;51.084;3.712;2023-03-05T17:10:31;6.60;1.00
48575;DHT22;34352;51.084;3.712;2023-03-05T17:13:02;6.50;1.00
48575;DHT22;34352;51.084;3.712;2023-03-05T17:15:27;6.50;1.00
48575;DHT22;34352;51.084;3.712;2023-03-05T17:17:59;6.50;1.00
48575;DHT22;34352;51.084;3.712;2023-03-05T17:20:25;6.50;1.00
48575;DHT22;34352;51.084;3.712;2023-03-05T17:22:52;6.50;1.00
48575;DHT22;34352;51.084;3.712;2023-03-05T17:25:19;6.30;1.00
48575;DHT22;34352;51.084;3.712;2023-03-05T17:27:46;6.40;1.00
48575;DHT22;34352;51.084;3.712;2023-03-05T17:30:12;6.30;1.00
48575;DHT22;34352;51.084;3.712;2023-03-05T17:32:39;6.30;1.00
48575;DHT22;34352;51.084;3.712;2023-03-05T17:35:07;6.30;1.00
48575;DHT22;34352;51.084;3.712;2023-03-05T17:37:40;6.40;1.00
48575;DHT22;34352;51.084;3.712;2023-03-05T17:40:07;6.30;1.00
48575;DHT22;34352;51.084;3.712;2023-03-05T17:42:46;6.40;1.00
48575;DHT22;34352;51.084;3.712;2023-03-05T17:45:18;6.30;1.00
48575;DHT22;34352;51.084;3.712;2023-03-05T17:47:46;6.70;1.00
48575;DHT22;34352;51.084;3.712;2023-03-05T17:50:13;6.20;1.00
48575;DHT22;34352;51.084;3.712;2023-03-05T17:52:43;6.20;1.00
48575;DHT22;34352;51.084;3.712;2023-03-05T17:55:14;4.90;1.00
48575;DHT22;34352;51.084;3.712;2023-03-05T17:57:43;6.10;1.00
48575;DHT22;34352;51.084;3.712;2023-03-05T18:00:18;6.10;1.00
48575;DHT22;34352;51.084;3.712;2023-03-05T18:02:47;6.10;1.00
48575;DHT22;34352;51.084;3.712;2023-03-05T18:05:18;6.10;1.00
48575;DHT22;34352;51.084;3.712;2023-03-05T18:07:45;6.10;1.00